Main page
METAR-TAF:

METAR-TAF

Airports :

Warsaw Municipal Airport

Warsaw, Indiana, United States

latitude: 41-16-28N, longitude: 085-50-24W, elevation: 850 ft

Current weather observation

The report was made 12 minutes ago, at 01:35 UTC
Wind 9 mph from the West
Temperature 46°F
Humidity 71%
Pressure 29.91 in. Hg
Visibility: 10 miles
Clear sky

METAR: KASW 130135Z AUTO 28008KT 10SM CLR 08/03 A2991 RMK AO2 T00820037

Time: 21:47 (01:47 UTC)


TAF: missing

Weather observations and forecasts of more than 4000 airports (METAR and TAF reports).

The available stations are represented by yellow and red dots on the map.

Hover mouse over dot to see the name of the station.

Then click to see weather observations and forecasts.

To change the map : click on the green buttons with a black cross to zoom in, on the green button with a dash to zoom out, or on the green arrows for adjacent maps.


METAR-TAF: